• Join FlightAware (Why Join?)
  • Login
  • US Flag 
07:56AM EST


 

Airport Tracker/Info


-or-


 

Live Flight TrackerFlight Track Log ✈ UAL4305 ✈ 07-Apr-2013 ✈ KIAH - KDFW

Flight Track Log - Related Links

Times and Time Zones

All times are in EDT time to prevent confusion due to time zone crossing. See the UAL4305 flight status page for this flight to view local times or setup timezone preferences in your user account.

Time Position Orientation Groundspeed Altitude Reporting Facility
EDT Latitude Longitude Course Direction KTS MPH feet Rate Location/Type
10:33PM 29.9936 -95.3711 North 171 197 900  Level Houston Center
10:34PM 30.0153 -95.3997 311° West 220 253 2,000 1,500 Climbing Houston Center
10:34PM 30.0425 -95.4042 352° North 281 323 2,600 2,040 Climbing Houston Center
10:35PM 30.1211 -95.4069 358° North 280 322 5,100 2,520 Climbing Houston Center
10:36PM 30.2545 -95.3161 North  Level FlightAware Approximate
10:36PM 30.2044 -95.3872 12° North 303 349 7,800  Level Houston Center
10:37PM 30.3448 -95.3048 North  Level FlightAware Approximate
10:37PM 30.2869 -95.3711 10° North 304 350 10,300  Level Houston Center
10:38PM 30.4354 -95.3000 North  Level FlightAware Approximate
10:38PM 30.3761 -95.3547 North 318 366 11,700  Level Houston Center
10:39PM 30.5263 -95.3000 North  Level FlightAware Approximate
10:39PM 30.4961 -95.3294 10° North 359 413 13,300  Level Houston Center
10:40PM 30.6006 -95.3097 North 374 430 14,900 1,560 Climbing Houston Center
10:41PM 30.7000 -95.3158 357° North 387 445 16,500 1,680 Climbing Houston Center
10:42PM 30.7911 -95.3697 333° Northwest 354 407 18,400 1,740 Climbing Houston Center
10:43PM 30.8819 -95.4233 333° Northwest 359 413 20,100 1,260 Climbing Houston Center
10:44PM 30.9714 -95.4775 333° Northwest 359 413 21,000 420 Climbing Houston Center
10:45PM 31.0739 -95.5383 333° Northwest 404 465 21,000  Level Houston Center
10:46PM 31.1783 -95.6003 333° Northwest 418 481 21,000  Level Houston Center
10:47PM 31.2825 -95.6633 333° Northwest 417 480 21,000  Level Fort Worth Center
10:48PM 31.3878 -95.7269 333° Northwest 412 474 21,000  Level Fort Worth Center
10:49PM 31.4911 -95.7883 333° Northwest 412 474 21,000  Level Fort Worth Center
10:50PM 31.5919 -95.8525 332° Northwest 417 480 21,000  Level Fort Worth Center
10:51PM 31.6908 -95.9167 331° Northwest 405 466 21,000  Level Fort Worth Center
10:52PM 31.7939 -95.9761 334° Northwest 405 466 21,000  Level Fort Worth Center
10:53PM 31.8864 -96.0333 332° Northwest 410 472 21,000  Level Fort Worth Center
10:54PM 31.9872 -96.0956 332° Northwest 410 472 21,000  Level Fort Worth Center
10:55PM 32.0903 -96.1578 333° Northwest 410 472 21,000 -540 Level Fort Worth Center
10:56PM 32.1975 -96.2325 329° Northwest 410 472 20,000  Descending Fort Worth Center
10:57PM 32.2756 -96.3247 315° West 407 468 21,000 -2,400 Climbing Fort Worth Center
10:58PM 32.3514 -96.4150 315° West 392 451 15,200 -4,260 Descending Fort Worth Center
10:59PM 32.4231 -96.5003 315° West 377 434 12,400 -2,100 Descending Fort Worth Center
11:00PM 32.4944 -96.5858 315° West 366 421 11,000 -720 Descending Fort Worth Center
11:01PM 32.5575 -96.6567 317° Northwest 339 390 11,000  Level Fort Worth Center
11:02PM 32.6122 -96.7278 312° West 295 339 11,000  Level Fort Worth Center
11:03PM 32.6711 -96.7939 317° Northwest 295 339 11,000  Level Fort Worth Center
11:04PM 32.7153 -96.8481 314° West 277 319 11,000 -120 Level Fort Worth Center
11:05PM 32.7656 -96.9019 318° Northwest 246 283 10,800 -1,080 Descending Fort Worth Center
11:06PM 32.8386 -96.9042 359° North 234 269 8,900 -2,160 Descending Fort Worth Center
11:07PM 32.8667 -96.9000 North 274 315 8,200 -1,860 Descending Dallas / Fort Worth TRACON
11:08PM 32.9333 -96.9000 360° North 258 297 6,800 -1,380 Descending Dallas / Fort Worth TRACON
11:08PM 32.9833 -96.9167 344° North 243 280 5,800 -1,320 Descending Dallas / Fort Worth TRACON
11:09PM 33.0333 -96.9500 331° Northwest 225 259 4,300 -1,560 Descending Dallas / Fort Worth TRACON
11:11PM 33.0167 -97.0167 253° West 188 216 2,600 -1,200 Descending Dallas / Fort Worth TRACON
11:12PM 32.9833 -97.0333 203° Southwest 110 127 1,900 -600 Descending Dallas / Fort Worth TRACON
11:13PM 32.9500 -97.0333 180° South 117 135 1,400 -540 Descending Dallas / Fort Worth TRACON